Time;durP1;ratioP1;P1;durP2;ratioP2;P2;SDS_P1;SDS_P2;PMS_P1;PMS_P2;Temp;Humidity;BMP_temperature;BMP_pressure;BME280_temperature;BME280_humidity;BME280_pressure;Samples;Min_cycle;Max_cycle;Signal;HPM_P1;HPM_P2
2022/11/09 00:04:03;;;;;;;37.60;23.47;;;6.10;99.90;;;;;;10016096;29;20249;-84
2022/11/09 00:09:06;;;;;;;36.73;22.20;;;6.10;99.90;;;;;;10002958;29;20309;-84
2022/11/09 00:14:14;;;;;;;42.13;24.43;;;6.00;99.90;;;;;;9998486;29;20329;-84
2022/11/09 00:19:18;;;;;;;37.27;23.33;;;6.00;99.90;;;;;;10046536;29;20986;-84
2022/11/09 00:24:20;;;;;;;38.27;23.37;;;6.00;99.90;;;;;;10053795;29;20384;-84
2022/11/09 00:29:23;;;;;;;39.17;23.90;;;6.20;99.90;;;;;;10035626;29;20728;-84
2022/11/09 00:34:25;;;;;;;38.83;23.97;;;6.10;99.90;;;;;;10036682;29;20314;-84
2022/11/09 00:39:28;;;;;;;39.57;23.43;;;6.30;99.90;;;;;;10024034;29;20281;-84
2022/11/09 00:44:32;;;;;;;43.03;23.77;;;6.30;99.90;;;;;;10033353;29;20321;-84
2022/11/09 00:49:35;;;;;;;34.13;22.47;;;6.30;99.90;;;;;;10036223;29;20281;-84
2022/11/09 00:54:37;;;;;;;38.50;22.20;;;6.30;99.90;;;;;;10033876;29;20245;-84
2022/11/09 00:59:39;;;;;;;38.80;23.13;;;6.20;99.90;;;;;;10036547;29;20282;-84
2022/11/09 01:04:42;;;;;;;39.97;23.10;;;6.30;99.90;;;;;;10051243;29;20309;-84
2022/11/09 01:09:45;;;;;;;42.50;25.57;;;6.30;99.90;;;;;;10034939;29;20707;-84
2022/11/09 01:14:47;;;;;;;38.80;25.50;;;6.40;99.90;;;;;;10034339;29;20283;-84
2022/11/09 01:19:50;;;;;;;42.70;25.43;;;6.40;99.90;;;;;;10036215;29;20663;-84
2022/11/09 01:24:53;;;;;;;46.27;24.93;;;6.40;99.90;;;;;;10052766;29;20294;-84
2022/11/09 01:29:58;;;;;;;39.43;24.23;;;6.50;99.90;;;;;;10048435;29;20269;-84
2022/11/09 01:35:00;;;;;;;41.20;24.80;;;6.60;99.90;;;;;;10035478;29;20213;-84
2022/11/09 01:40:05;;;;;;;46.37;25.57;;;6.60;99.90;;;;;;10014455;29;20675;-84
2022/11/09 01:45:17;;;;;;;46.93;26.10;;;6.70;99.90;;;;;;9997384;29;20271;-84
2022/11/09 01:50:32;;;;;;;49.97;27.77;;;6.70;99.90;;;;;;10015033;29;20258;-84
2022/11/09 01:55:36;;;;;;;43.50;26.60;;;6.80;99.90;;;;;;9999272;29;20245;-84
2022/11/09 02:00:43;;;;;;;38.53;25.03;;;6.80;99.90;;;;;;10003349;29;20258;-84
2022/11/09 02:05:48;;;;;;;52.23;28.17;;;6.80;99.90;;;;;;10035079;29;20249;-84
2022/11/09 02:10:59;;;;;;;56.37;30.47;;;6.90;99.90;;;;;;10041300;29;20321;-84
2022/11/09 02:16:02;;;;;;;61.07;32.47;;;6.80;99.90;;;;;;10040091;29;20631;-84
2022/11/09 02:21:06;;;;;;;51.50;28.97;;;6.70;99.90;;;;;;10041259;29;20298;-84
2022/11/09 02:26:17;;;;;;;43.27;26.60;;;6.60;99.90;;;;;;10056273;29;20301;-84
2022/11/09 02:31:21;;;;;;;44.37;26.20;;;6.60;99.90;;;;;;10062976;29;20294;-84
2022/11/09 02:36:24;;;;;;;42.57;24.93;;;6.50;99.90;;;;;;10057193;29;20317;-84
2022/11/09 02:41:29;;;;;;;38.57;24.13;;;6.40;99.90;;;;;;10038690;29;20700;-84
2022/11/09 02:46:34;;;;;;;41.47;24.50;;;6.40;99.90;;;;;;10057180;29;20484;-84
2022/11/09 02:51:37;;;;;;;45.20;25.27;;;6.40;99.90;;;;;;10028197;29;20333;-84
2022/11/09 02:56:40;;;;;;;45.17;24.87;;;6.40;99.90;;;;;;10039947;29;20697;-84
2022/11/09 03:01:43;;;;;;;42.40;24.43;;;6.30;99.90;;;;;;10020012;29;20254;-84
2022/11/09 03:06:46;;;;;;;37.30;23.40;;;6.20;99.90;;;;;;9995449;29;20306;-84
2022/11/09 03:11:51;;;;;;;44.93;23.80;;;6.20;99.90;;;;;;10038571;29;20276;-84
2022/11/09 03:16:55;;;;;;;44.30;24.03;;;6.30;99.90;;;;;;10037115;29;20253;-84
2022/11/09 03:21:57;;;;;;;40.57;22.63;;;6.40;99.90;;;;;;10038490;29;20214;-85
2022/11/09 03:27:00;;;;;;;40.80;23.83;;;6.40;99.90;;;;;;10039266;29;20245;-84
2022/11/09 03:32:04;;;;;;;45.93;23.73;;;6.60;99.90;;;;;;10038537;29;20337;-84
2022/11/09 03:37:07;;;;;;;36.43;22.50;;;6.60;99.90;;;;;;10036429;29;20289;-84
2022/11/09 03:42:09;;;;;;;44.17;25.57;;;6.60;99.90;;;;;;10035174;29;20286;-83
2022/11/09 03:47:13;;;;;;;42.67;23.90;;;6.70;99.90;;;;;;10036359;29;20257;-83
2022/11/09 03:52:16;;;;;;;41.13;23.60;;;6.80;99.90;;;;;;10000247;29;20314;-84
2022/11/09 03:57:18;;;;;;;40.77;23.13;;;6.90;99.90;;;;;;10016747;29;20646;-84
2022/11/09 04:02:21;;;;;;;43.17;24.23;;;7.00;99.90;;;;;;10037650;29;20389;-84
2022/11/09 04:07:23;;;;;;;44.53;23.50;;;7.10;99.90;;;;;;10054198;29;20253;-84
2022/11/09 04:12:26;;;;;;;41.50;22.67;;;7.10;99.90;;;;;;10033504;29;20306;-84
2022/11/09 04:17:28;;;;;;;46.27;25.93;;;7.10;99.90;;;;;;10053961;29;20715;-84
2022/11/09 04:22:31;;;;;;;46.43;25.27;;;7.10;99.90;;;;;;10051769;29;20253;-84
2022/11/09 04:27:33;;;;;;;43.40;24.80;;;7.10;99.90;;;;;;10053720;29;20310;-83
2022/11/09 04:32:36;;;;;;;41.93;24.07;;;6.90;99.90;;;;;;10053345;29;20325;-84
2022/11/09 04:37:38;;;;;;;42.80;23.53;;;6.90;99.90;;;;;;10034617;29;20266;-84
2022/11/09 04:42:41;;;;;;;44.40;26.30;;;6.70;99.90;;;;;;10053138;29;20253;-84
2022/11/09 04:47:43;;;;;;;47.43;26.57;;;6.60;99.90;;;;;;10027489;29;20644;-84
2022/11/09 04:52:46;;;;;;;48.33;25.93;;;6.60;99.90;;;;;;10014611;29;20743;-84
2022/11/09 04:57:48;;;;;;;46.43;25.97;;;6.60;99.90;;;;;;10018924;29;20257;-84
2022/11/09 05:02:51;;;;;;;50.17;25.43;;;6.60;99.90;;;;;;10034074;29;20682;-84
2022/11/09 05:07:53;;;;;;;43.00;24.40;;;6.50;99.90;;;;;;10036268;29;20425;-84
2022/11/09 05:12:57;;;;;;;46.10;24.80;;;6.40;99.90;;;;;;10034019;29;20318;-84
2022/11/09 05:18:00;;;;;;;47.00;24.73;;;6.40;99.90;;;;;;10051529;29;20699;-84
2022/11/09 05:28:25;;;;;;;46.67;23.80;;;6.40;99.90;;;;;;10028501;29;20665;-84
2022/11/09 05:33:27;;;;;;;40.80;23.27;;;6.40;99.90;;;;;;10040098;29;20337;-84
2022/11/09 05:38:30;;;;;;;43.97;23.80;;;6.40;99.90;;;;;;10037797;29;20295;-84
2022/11/09 05:43:33;;;;;;;42.70;24.10;;;6.30;99.90;;;;;;10026876;29;20242;-84
2022/11/09 05:48:35;;;;;;;43.33;24.80;;;6.10;99.90;;;;;;10055519;29;20242;-84
2022/11/09 05:53:38;;;;;;;52.53;29.60;;;6.20;99.90;;;;;;10057685;29;20245;-84
2022/11/09 05:58:47;;;;;;;59.93;31.17;;;6.20;99.90;;;;;;10056712;29;20278;-83
2022/11/09 06:03:52;;;;;;;130.57;51.03;;;6.00;99.90;;;;;;10041412;29;20633;-84
2022/11/09 06:08:55;;;;;;;56.77;30.37;;;5.80;99.90;;;;;;10037311;29;20302;-84
2022/11/09 06:13:57;;;;;;;52.20;25.70;;;5.80;99.90;;;;;;10055749;29;20254;-85
2022/11/09 06:19:00;;;;;;;41.03;23.97;;;6.00;99.90;;;;;;10040749;29;20356;-84
2022/11/09 06:24:02;;;;;;;46.43;24.47;;;6.00;99.90;;;;;;10037865;29;20242;-84
2022/11/09 06:29:05;;;;;;;49.47;29.63;;;6.00;99.90;;;;;;10056496;29;20666;-84
2022/11/09 06:34:08;;;;;;;64.63;34.93;;;6.20;99.90;;;;;;10038709;29;20241;-84
2022/11/09 06:39:10;;;;;;;59.40;32.57;;;6.20;99.90;;;;;;10056106;29;20302;-84
2022/11/09 06:44:12;;;;;;;48.97;29.37;;;6.20;99.90;;;;;;10055258;29;20649;-83
2022/11/09 06:49:15;;;;;;;54.00;28.83;;;6.20;99.90;;;;;;10055603;29;20313;-83
2022/11/09 06:54:17;;;;;;;49.60;26.63;;;6.30;99.90;;;;;;10038254;29;20293;-84
2022/11/09 06:59:20;;;;;;;36.00;22.37;;;6.50;99.90;;;;;;10035794;29;20306;-82
2022/11/09 07:04:26;;;;;;;44.53;28.17;;;7.10;99.90;;;;;;10030310;29;20653;-82
2022/11/09 07:09:29;;;;;;;48.33;28.50;;;7.30;99.90;;;;;;10055261;29;20261;-83
2022/11/09 07:14:31;;;;;;;62.93;32.30;;;7.20;99.90;;;;;;10055310;29;20253;-82
2022/11/09 07:19:34;;;;;;;118.00;38.50;;;7.40;99.90;;;;;;10033231;29;20246;-80
2022/11/09 07:24:36;;;;;;;47.37;28.13;;;9.40;99.90;;;;;;10028185;29;20249;-81
2022/11/09 07:29:39;;;;;;;45.50;24.50;;;10.40;99.90;;;;;;10034643;29;20286;-81
2022/11/09 07:34:41;;;;;;;58.10;31.53;;;10.20;99.90;;;;;;10052907;29;20692;-81
2022/11/09 07:39:44;;;;;;;54.73;30.77;;;9.30;99.90;;;;;;10016904;29;20306;-81
2022/11/09 07:44:46;;;;;;;56.63;30.70;;;8.70;99.90;;;;;;10025237;29;20257;-82
2022/11/09 07:49:49;;;;;;;62.57;29.77;;;8.60;99.90;;;;;;10032919;29;20326;-82
2022/11/09 07:54:51;;;;;;;50.13;26.10;;;8.60;99.90;;;;;;10036519;29;20580;-82
2022/11/09 07:59:54;;;;;;;50.43;25.23;;;8.70;99.90;;;;;;10050065;29;20257;-81
2022/11/09 08:04:56;;;;;;;51.70;27.77;;;8.80;99.90;;;;;;10033946;29;20706;-81
2022/11/09 08:09:59;;;;;;;104.03;47.47;;;8.90;99.90;;;;;;10031365;29;20716;-82
2022/11/09 08:15:01;;;;;;;53.93;29.77;;;9.10;99.90;;;;;;10035104;29;20249;-82
2022/11/09 08:20:05;;;;;;;46.23;25.47;;;9.20;99.90;;;;;;9992465;29;20258;-81
2022/11/09 08:25:08;;;;;;;56.17;28.77;;;9.40;99.90;;;;;;10050652;29;20390;-82
2022/11/09 08:30:13;;;;;;;74.17;33.23;;;9.40;99.90;;;;;;10039083;29;20321;-81
2022/11/09 08:35:19;;;;;;;65.63;35.17;;;9.50;99.90;;;;;;10032348;29;20238;-81
2022/11/09 08:40:23;;;;;;;55.00;28.17;;;9.60;99.90;;;;;;10021352;29;20276;-82
2022/11/09 08:45:26;;;;;;;49.13;27.50;;;9.70;99.90;;;;;;10035802;29;20655;-83
2022/11/09 08:50:29;;;;;;;48.97;25.93;;;9.80;99.90;;;;;;10026661;29;20672;-82
2022/11/09 08:55:32;;;;;;;47.10;25.57;;;10.00;99.90;;;;;;10036122;29;20329;-82
2022/11/09 09:00:34;;;;;;;60.50;32.97;;;10.10;99.90;;;;;;10018105;29;20225;-82
2022/11/09 09:05:37;;;;;;;50.20;26.43;;;10.30;99.90;;;;;;10053988;29;20245;-82
2022/11/09 09:10:39;;;;;;;43.37;21.80;;;10.40;99.90;;;;;;10056088;29;20713;-82
2022/11/09 09:15:42;;;;;;;47.23;23.47;;;10.60;99.90;;;;;;10034155;29;20245;-81
2022/11/09 09:20:45;;;;;;;49.70;25.70;;;10.70;99.90;;;;;;10021792;29;20306;-81
2022/11/09 09:25:48;;;;;;;47.07;24.30;;;10.60;99.90;;;;;;10025366;29;20241;-81
2022/11/09 09:30:51;;;;;;;41.90;22.23;;;10.60;99.90;;;;;;10024177;29;20266;-82
2022/11/09 09:35:57;;;;;;;43.17;22.83;;;10.70;99.90;;;;;;10050063;29;20269;-82
2022/11/09 09:41:01;;;;;;;39.10;22.07;;;10.80;99.90;;;;;;10057568;29;20238;-81
2022/11/09 09:46:12;;;;;;;44.47;26.07;;;11.00;99.90;;;;;;10058072;29;20245;-81
2022/11/09 09:51:26;;;;;;;38.47;22.70;;;11.10;99.90;;;;;;10036598;29;20305;-81
2022/11/09 09:56:36;;;;;;;42.47;21.60;;;11.20;99.90;;;;;;10023225;29;20242;-81
2022/11/09 10:01:43;;;;;;;45.83;23.20;;;11.20;99.90;;;;;;10030003;29;20697;-82
2022/11/09 10:07:02;;;;;;;44.50;21.50;;;11.20;99.90;;;;;;10034983;29;20982;-82
2022/11/09 10:12:32;;;;;;;38.30;20.93;;;11.30;99.90;;;;;;10051606;29;20269;-81
2022/11/09 10:17:53;;;;;;;37.37;20.80;;;11.30;99.90;;;;;;10039741;29;20245;-81
2022/11/09 10:23:23;;;;;;;44.13;22.87;;;11.40;99.90;;;;;;10057774;29;20249;-81
2022/11/09 10:28:28;;;;;;;34.57;20.57;;;11.60;99.90;;;;;;10054767;29;20249;-81
2022/11/09 10:33:56;;;;;;;36.47;21.07;;;11.80;99.90;;;;;;10040424;29;20291;-81
2022/11/09 10:39:00;;;;;;;33.73;18.90;;;12.30;99.90;;;;;;10050663;29;20257;-81
2022/11/09 10:44:21;;;;;;;33.47;18.13;;;12.50;99.90;;;;;;10058496;29;20695;-81
2022/11/09 10:49:42;;;;;;;38.47;22.37;;;12.60;99.90;;;;;;10052906;29;20254;-82
2022/11/09 10:55:25;;;;;;;28.40;17.13;;;12.80;99.90;;;;;;10050458;29;20611;-81
2022/11/09 11:01:05;;;;;;;29.80;17.57;;;13.60;99.90;;;;;;10056674;29;20249;-81
2022/11/09 11:06:30;;;;;;;27.77;16.70;;;13.40;99.90;;;;;;10046581;29;20250;-81
2022/11/09 11:12:13;;;;;;;31.47;17.87;;;14.00;99.90;;;;;;10016013;29;20274;-81
2022/11/09 11:17:36;;;;;;;37.20;18.20;;;13.30;99.90;;;;;;10055961;29;20246;-81
2022/11/09 11:23:12;;;;;;;32.67;18.30;;;13.30;99.90;;;;;;10062583;29;20252;-82
2022/11/09 11:28:45;;;;;;;32.43;17.83;;;13.30;99.90;;;;;;10046945;29;20701;-82
2022/11/09 11:34:13;;;;;;;28.77;17.93;;;13.20;99.90;;;;;;10054605;29;20728;-82
2022/11/09 11:40:03;;;;;;;34.00;17.37;;;12.90;99.90;;;;;;10034754;29;21385;-82
2022/11/09 11:45:35;;;;;;;29.67;16.97;;;12.80;99.90;;;;;;10037299;29;20238;-82
2022/11/09 11:51:10;;;;;;;29.87;16.07;;;12.80;99.90;;;;;;10049566;29;20258;-82
2022/11/09 11:56:37;;;;;;;29.60;15.53;;;12.90;99.90;;;;;;10055188;29;20238;-82
2022/11/09 12:02:11;;;;;;;25.80;14.73;;;13.00;99.90;;;;;;10047895;29;20238;-82
2022/11/09 12:07:44;;;;;;;28.07;15.20;;;13.10;99.90;;;;;;10053167;29;20255;-82
2022/11/09 12:13:26;;;;;;;24.53;15.00;;;13.20;99.90;;;;;;10056114;29;20275;-81
2022/11/09 12:19:10;;;;;;;26.37;15.60;;;13.20;99.90;;;;;;10034802;29;20707;-82
2022/11/09 12:24:50;;;;;;;25.23;15.53;;;13.20;99.90;;;;;;10033598;29;20239;-82
2022/11/09 12:30:16;;;;;;;31.33;15.03;;;13.10;99.90;;;;;;10056120;29;20642;-82
2022/11/09 12:35:39;;;;;;;29.17;16.67;;;13.00;99.90;;;;;;10061502;29;20246;-82
2022/11/09 12:41:07;;;;;;;27.47;14.80;;;13.00;99.90;;;;;;10034193;29;20805;-81
2022/11/09 12:46:37;;;;;;;26.07;15.20;;;13.00;99.90;;;;;;10032332;29;20245;-82
2022/11/09 12:51:58;;;;;;;31.17;18.80;;;13.00;99.90;;;;;;10025763;29;20262;-82
2022/11/09 12:57:25;;;;;;;34.50;17.60;;;12.80;99.90;;;;;;10031550;29;20250;-81
2022/11/09 13:02:56;;;;;;;31.20;18.23;;;12.80;99.90;;;;;;10032120;29;20239;-82
2022/11/09 13:08:29;;;;;;;32.73;16.97;;;12.70;99.90;;;;;;10037831;29;20247;-82
2022/11/09 13:13:50;;;;;;;30.27;17.30;;;12.60;99.90;;;;;;10036821;29;20264;-81
2022/11/09 13:19:31;;;;;;;29.73;18.00;;;12.40;99.90;;;;;;10049585;29;20239;-81
2022/11/09 13:24:58;;;;;;;35.50;20.23;;;12.30;99.90;;;;;;10045338;29;20252;-82
2022/11/09 13:30:27;;;;;;;33.67;19.03;;;13.00;99.90;;;;;;10054675;29;20258;-82
2022/11/09 13:35:48;;;;;;;31.30;16.70;;;12.40;99.90;;;;;;10056014;29;20271;-82
2022/11/09 13:41:28;;;;;;;28.70;15.83;;;12.80;99.90;;;;;;10063734;29;20698;-82
2022/11/09 13:46:48;;;;;;;30.50;17.73;;;12.10;99.90;;;;;;10024679;29;20232;-82
2022/11/09 13:52:55;;;;;;;31.17;19.17;;;11.80;99.90;;;;;;10026509;29;20265;-81
2022/11/09 13:58:43;;;;;;;39.70;21.93;;;11.60;99.90;;;;;;10012496;29;20251;-82
2022/11/09 14:04:04;;;;;;;40.63;23.00;;;11.50;99.90;;;;;;10014361;29;20242;-83
2022/11/09 14:09:26;;;;;;;45.37;24.03;;;11.50;99.90;;;;;;10010377;29;20250;-82
2022/11/09 14:15:02;;;;;;;55.23;27.83;;;11.50;99.90;;;;;;10021262;29;20270;-82
2022/11/09 14:20:46;;;;;;;46.27;23.57;;;11.50;99.90;;;;;;10009710;29;20242;-82
2022/11/09 14:26:15;;;;;;;39.83;21.23;;;11.40;99.90;;;;;;10030743;29;20241;-82
2022/11/09 14:31:42;;;;;;;37.20;22.17;;;11.50;99.90;;;;;;10006133;29;20650;-82
2022/11/09 14:37:05;;;;;;;36.40;22.13;;;11.40;99.90;;;;;;10027923;29;20263;-82
2022/11/09 14:42:27;;;;;;;43.03;23.07;;;11.40;99.90;;;;;;10024368;29;20630;-82
2022/11/09 14:47:51;;;;;;;42.43;23.07;;;11.40;99.90;;;;;;10021414;29;20254;-82
2022/11/09 14:53:21;;;;;;;38.23;22.27;;;11.40;99.90;;;;;;10018858;29;20241;-81
2022/11/09 14:58:43;;;;;;;34.83;21.70;;;11.20;99.90;;;;;;10019775;29;20246;-81
2022/11/09 15:04:18;;;;;;;41.77;21.80;;;11.20;99.90;;;;;;10006709;29;20249;-80
2022/11/09 15:09:47;;;;;;;36.13;19.37;;;11.10;99.90;;;;;;10009637;29;20250;-81
2022/11/09 15:15:23;;;;;;;34.80;20.40;;;11.10;99.90;;;;;;10021701;29;20262;-81
2022/11/09 15:20:44;;;;;;;38.67;20.23;;;10.90;99.90;;;;;;10007642;29;20242;-80
2022/11/09 15:26:05;;;;;;;38.17;22.20;;;10.90;99.90;;;;;;10010047;29;20249;-81
2022/11/09 15:31:27;;;;;;;46.23;23.90;;;10.80;99.90;;;;;;10003998;29;20634;-81
2022/11/09 15:36:53;;;;;;;48.90;26.10;;;10.70;99.90;;;;;;10026590;29;20266;-81
2022/11/09 15:42:14;;;;;;;30.73;19.37;;;10.70;99.90;;;;;;10021258;29;20249;-81
2022/11/09 15:47:37;;;;;;;49.77;26.17;;;11.40;99.90;;;;;;10037124;24;20262;-90
2022/11/09 15:52:58;;;;;;;53.07;26.90;;;11.30;99.90;;;;;;10003395;29;20647;-89
2022/11/09 15:58:19;;;;;;;52.97;26.57;;;10.60;99.90;;;;;;10004332;29;20237;-90
2022/11/09 16:03:40;;;;;;;47.83;26.07;;;10.30;99.90;;;;;;10009419;29;20694;-90
2022/11/09 16:09:01;;;;;;;46.67;25.93;;;10.30;99.90;;;;;;9693261;29;10000221;-90
2022/11/09 16:14:23;;;;;;;53.77;27.77;;;10.10;99.90;;;;;;10018509;29;20782;-90
2022/11/09 16:19:44;;;;;;;58.20;28.80;;;10.00;99.90;;;;;;10015274;29;20241;-90
2022/11/09 16:25:05;;;;;;;58.23;28.40;;;10.10;99.90;;;;;;10003960;29;20692;-90
2022/11/09 16:30:26;;;;;;;50.67;27.20;;;10.00;99.90;;;;;;10001625;29;20277;-90
2022/11/09 16:35:47;;;;;;;57.53;28.77;;;9.80;99.90;;;;;;10014457;29;20269;-90
2022/11/09 16:41:09;;;;;;;69.27;35.17;;;9.70;99.90;;;;;;10012097;29;20629;-90
2022/11/09 16:46:30;;;;;;;67.70;32.70;;;9.60;99.90;;;;;;9997559;29;20638;-89
2022/11/09 16:51:51;;;;;;;59.63;31.37;;;9.60;99.90;;;;;;10024393;29;20680;-89
2022/11/09 16:57:12;;;;;;;71.57;33.93;;;9.60;99.90;;;;;;10022935;29;20711;-89
2022/11/09 17:02:33;;;;;;;61.33;32.93;;;9.80;99.90;;;;;;10039629;29;20640;-89
2022/11/09 17:07:54;;;;;;;65.13;33.03;;;9.60;99.90;;;;;;10016929;29;20907;-89
2022/11/09 17:13:15;;;;;;;69.33;36.57;;;9.50;99.90;;;;;;10039549;29;20273;-89
2022/11/09 17:18:37;;;;;;;67.37;35.93;;;9.50;99.90;;;;;;10016029;29;20245;-90
2022/11/09 17:23:59;;;;;;;67.40;36.80;;;9.60;99.90;;;;;;10009224;29;20246;-90
2022/11/09 17:29:21;;;;;;;74.63;38.73;;;9.40;99.90;;;;;;10005510;29;20257;-89
2022/11/09 17:34:42;;;;;;;81.83;39.93;;;9.10;99.90;;;;;;10061471;29;20285;-89
2022/11/09 17:40:04;;;;;;;79.97;38.70;;;9.00;99.90;;;;;;10033084;29;20241;-89
2022/11/09 17:45:25;;;;;;;69.83;37.70;;;8.80;99.90;;;;;;10017652;29;20274;-89
2022/11/09 17:50:46;;;;;;;71.23;35.00;;;8.90;99.90;;;;;;10021820;29;20255;-89
2022/11/09 17:56:08;;;;;;;67.73;34.27;;;8.80;99.90;;;;;;9981695;29;20743;-90
2022/11/09 18:01:29;;;;;;;65.70;35.60;;;8.90;99.90;;;;;;10038912;29;20218;-96
2022/11/09 18:06:55;;;;;;;70.23;35.87;;;8.60;99.90;;;;;;10022168;29;20709;-95
2022/11/09 18:12:16;;;;;;;61.10;33.03;;;8.60;99.90;;;;;;10017561;29;20720;-95
2022/11/09 18:17:37;;;;;;;75.37;38.30;;;8.20;99.90;;;;;;10017536;29;20218;-95
2022/11/09 18:22:58;;;;;;;84.50;42.23;;;8.30;99.90;;;;;;10022734;29;20218;-95
2022/11/09 18:28:20;;;;;;;79.30;41.93;;;8.10;99.90;;;;;;10018397;29;20218;-94
2022/11/09 18:33:42;;;;;;;158.90;59.13;;;7.80;99.90;;;;;;10037461;29;20234;-95
2022/11/09 18:39:04;;;;;;;88.50;42.57;;;8.00;99.90;;;;;;10043533;29;20202;-94
2022/11/09 18:44:25;;;;;;;121.30;54.60;;;7.80;99.90;;;;;;10021502;29;20238;-94
2022/11/09 18:49:46;;;;;;;195.90;74.40;;;7.50;99.90;;;;;;10003408;29;20218;-95
2022/11/09 18:55:07;;;;;;;222.90;84.27;;;7.70;99.90;;;;;;10022141;29;20234;-95
2022/11/09 19:00:29;;;;;;;182.07;73.07;;;7.40;99.90;;;;;;9999310;29;20226;-95
2022/11/09 19:05:50;;;;;;;151.97;67.30;;;7.70;99.90;;;;;;10046490;29;20218;-95
2022/11/09 19:11:12;;;;;;;101.03;50.60;;;7.60;99.90;;;;;;10010990;29;20218;-95
2022/11/09 19:16:34;;;;;;;85.30;43.83;;;7.80;99.90;;;;;;10003302;29;20226;-94
2022/11/09 19:21:56;;;;;;;87.53;46.73;;;8.20;99.90;;;;;;9999756;29;20578;-94
2022/11/09 19:27:17;;;;;;;92.17;46.63;;;8.00;99.90;;;;;;9975061;29;20211;-95
2022/11/09 19:32:38;;;;;;;81.20;43.10;;;8.00;99.90;;;;;;10007946;29;20671;-94
2022/11/09 19:37:59;;;;;;;84.20;43.03;;;8.10;99.90;;;;;;10013741;29;20662;-94
2022/11/09 19:43:25;;;;;;;73.17;41.03;;;8.00;99.90;;;;;;10022643;29;20687;-94
2022/11/09 19:48:47;;;;;;;74.80;41.90;;;8.00;99.90;;;;;;10028088;29;20537;-95
2022/11/09 19:54:10;;;;;;;78.13;41.73;;;8.00;99.90;;;;;;10036600;29;20238;-95
2022/11/09 19:59:41;;;;;;;72.23;38.50;;;8.20;99.90;;;;;;10027798;29;20215;-95
2022/11/09 20:05:02;;;;;;;80.87;42.63;;;8.20;99.90;;;;;;10020483;29;20219;-95
2022/11/09 20:10:24;;;;;;;85.43;44.93;;;8.20;99.90;;;;;;10026741;29;20214;-95
2022/11/09 20:16:04;;;;;;;92.03;46.90;;;8.20;99.90;;;;;;10003746;29;20728;-94
2022/11/09 20:21:26;;;;;;;76.20;38.70;;;8.10;99.90;;;;;;10049023;29;20206;-95
2022/11/09 20:26:48;;;;;;;72.77;38.33;;;8.80;99.90;;;;;;10031018;29;20210;-95
2022/11/09 20:32:10;;;;;;;65.20;36.10;;;8.30;99.90;;;;;;10033504;29;20222;-96
2022/11/09 20:37:40;;;;;;;65.73;36.03;;;8.30;99.90;;;;;;10015495;29;20203;-96
2022/11/09 20:43:03;;;;;;;76.10;39.63;;;8.30;99.90;;;;;;10033360;29;20249;-95
2022/11/09 20:48:24;;;;;;;73.33;36.47;;;8.10;99.90;;;;;;10034282;29;20234;-95
2022/11/09 20:54:07;;;;;;;77.23;39.57;;;8.10;99.90;;;;;;10043323;29;20214;-96
2022/11/09 20:59:34;;;;;;;68.63;36.87;;;8.10;99.90;;;;;;10015411;29;20219;-96
2022/11/09 21:04:56;;;;;;;77.10;39.70;;;8.00;99.90;;;;;;10015989;29;20514;-96
2022/11/09 21:10:19;;;;;;;69.17;38.73;;;7.80;99.90;;;;;;10039152;29;20214;-96
2022/11/09 21:15:41;;;;;;;78.33;38.53;;;7.80;99.90;;;;;;10013103;29;20230;-96
2022/11/09 21:21:16;;;;;;;76.70;39.90;;;7.70;99.90;;;;;;10041433;29;20237;-95
2022/11/09 21:32:30;;;;;;;74.73;38.90;;;7.90;99.90;;;;;;10047807;29;20210;-96
2022/11/09 21:38:01;;;;;;;69.47;37.70;;;8.20;99.90;;;;;;9992002;29;20210;-96
2022/11/09 21:43:23;;;;;;;71.53;38.07;;;8.00;99.90;;;;;;10029966;29;20225;-96
2022/11/09 21:48:47;;;;;;;80.87;41.33;;;8.20;99.90;;;;;;10049405;29;20253;-96
2022/11/09 21:54:09;;;;;;;71.57;38.93;;;7.90;99.90;;;;;;10027609;29;20235;-96
2022/11/09 21:59:31;;;;;;;80.17;41.20;;;8.10;99.90;;;;;;10032775;29;20207;-96
2022/11/09 22:05:01;;;;;;;71.93;37.03;;;8.00;99.90;;;;;;10036734;29;20198;-96
2022/11/09 22:10:22;;;;;;;83.17;40.40;;;7.90;99.90;;;;;;10021105;29;20215;-96
2022/11/09 22:21:36;;;;;;;84.60;37.67;;;8.10;99.90;;;;;;10045171;29;20207;-96
2022/11/09 22:27:01;;;;;;;77.70;37.40;;;8.40;99.90;;;;;;10049460;29;20222;-96
2022/11/09 22:32:28;;;;;;;67.43;36.20;;;8.60;99.90;;;;;;10030409;29;20960;-96
2022/11/09 22:37:49;;;;;;;52.67;30.03;;;;;;;;;;10012729;29;20234;-96
2022/11/09 22:43:10;;;;;;;59.40;33.03;;;9.50;99.90;;;;;;10017718;29;20249;-95
2022/11/09 22:48:33;;;;;;;58.03;31.07;;;9.40;99.90;;;;;;9994499;29;20238;-96
2022/11/09 22:53:53;;;;;;;57.33;31.33;;;9.00;99.90;;;;;;10002377;29;20242;-95
2022/11/09 22:59:16;;;;;;;54.17;30.67;;;9.00;99.90;;;;;;10017675;29;20693;-95
2022/11/09 23:04:37;;;;;;;60.20;32.17;;;8.90;99.90;;;;;;10018849;29;20215;-96
2022/11/09 23:09:58;;;;;;;62.47;31.63;;;8.70;99.90;;;;;;10005281;29;20211;-95
2022/11/09 23:15:19;;;;;;;57.50;31.50;;;8.90;99.90;;;;;;10014402;29;20234;-96
2022/11/09 23:20:41;;;;;;;57.67;30.93;;;8.70;99.90;;;;;;10028582;29;20539;-96
2022/11/09 23:26:04;;;;;;;61.97;32.07;;;8.80;99.90;;;;;;9998227;29;20215;-95
2022/11/09 23:31:26;;;;;;;58.70;30.27;;;8.70;99.90;;;;;;9997890;29;20230;-95
2022/11/09 23:36:47;;;;;;;46.77;26.90;;;9.00;99.90;;;;;;10001155;29;20231;-96
2022/11/09 23:42:08;;;;;;;46.07;26.67;;;9.50;99.90;;;;;;9995291;29;20215;-95
2022/11/09 23:47:29;;;;;;;48.77;26.30;;;10.70;99.90;;;;;;9994691;29;20246;-96
2022/11/09 23:52:51;;;;;;;43.20;26.57;;;10.20;99.90;;;;;;10006553;29;20223;-96
2022/11/09 23:58:12;;;;;;;44.77;25.20;;;9.80;99.90;;;;;;9981456;29;20218;-95
